Time;durP1;ratioP1;P1;durP2;ratioP2;P2;SDS_P1;SDS_P2;PMS_P1;PMS_P2;Temp;Humidity;BMP_temperature;BMP_pressure;BME280_temperature;BME280_humidity;BME280_pressure;Samples;Min_cycle;Max_cycle;Signal;HPM_P1;HPM_P2
2021/07/30 00:01:11;;;;;;;8.57;6.50;;;;;;;;;;3561175;40;20446;-73
2021/07/30 00:03:37;;;;;;;8.57;7.73;;;;;;;;;;3570472;40;20806;-73
2021/07/30 00:06:03;;;;;;;10.93;5.63;;;;;;;;;;3571513;39;20420;-73
2021/07/30 00:08:29;;;;;;;11.73;5.33;;;;;;;;;;3571884;40;20408;-73
2021/07/30 00:10:55;;;;;;;6.47;5.77;;;;;;;;;;3570221;40;20829;-73
2021/07/30 00:13:22;;;;;;;14.30;8.03;;;;;;;;;;3569627;40;20437;-73
2021/07/30 00:15:48;;;;;;;13.97;6.17;;;;;;;;;;3569561;40;20409;-73
2021/07/30 00:18:14;;;;;;;5.93;5.37;;;;;;;;;;3570864;40;20421;-73
2021/07/30 00:20:40;;;;;;;11.23;6.37;;;;;;;;;;3571511;40;20418;-73
2021/07/30 00:23:06;;;;;;;8.67;5.90;;;;;;;;;;3571490;40;20580;-73
2021/07/30 00:25:33;;;;;;;6.87;5.43;;;;;;;;;;3569966;40;20890;-73
2021/07/30 00:27:59;;;;;;;18.10;6.40;;;;;;;;;;3571217;40;20437;-73
2021/07/30 00:30:25;;;;;;;7.20;6.20;;;;;;;;;;3570630;40;20413;-73
2021/07/30 00:32:51;;;;;;;5.80;5.30;;;;;;;;;;3570755;40;20460;-73
2021/07/30 00:35:17;;;;;;;17.50;6.80;;;;;;;;;;3572825;40;20389;-73
2021/07/30 00:37:43;;;;;;;7.17;5.73;;;;;;;;;;3570935;40;20868;-73
2021/07/30 00:40:09;;;;;;;7.50;6.17;;;;;;;;;;3562413;40;20547;-73
2021/07/30 00:42:36;;;;;;;12.90;5.90;;;;;;;;;;3568861;40;20448;-73
2021/07/30 00:45:02;;;;;;;6.13;5.37;;;;;;;;;;3572259;40;20498;-73
2021/07/30 00:47:29;;;;;;;8.67;5.87;;;;;;;;;;3571337;40;20737;-73
2021/07/30 00:49:56;;;;;;;12.80;5.70;;;;;;;;;;3572298;40;20413;-73
2021/07/30 00:52:24;;;;;;;6.00;5.50;;;;;;;;;;3570448;40;20409;-73
2021/07/30 00:54:51;;;;;;;10.63;6.27;;;;;;;;;;3562253;40;20479;-73
2021/07/30 00:57:17;;;;;;;8.80;5.40;;;;;;;;;;3561998;40;20424;-73
2021/07/30 00:59:43;;;;;;;8.23;5.50;;;;;;;;;;3561659;40;20864;-73
2021/07/30 01:02:10;;;;;;;7.10;5.63;;;;;;;;;;3563869;40;20438;-73
2021/07/30 01:04:36;;;;;;;10.50;6.33;;;;;;;;;;3570887;40;20456;-73
2021/07/30 01:07:02;;;;;;;6.13;5.53;;;;;;;;;;3560537;40;20451;-73
2021/07/30 01:09:28;;;;;;;11.23;6.23;;;;;;;;;;3570931;40;20409;-73
2021/07/30 01:11:54;;;;;;;7.73;6.40;;;;;;;;;;3569771;40;20413;-74
2021/07/30 01:14:20;;;;;;;6.90;5.60;;;;;;;;;;3569449;40;20391;-73
2021/07/30 01:16:46;;;;;;;8.47;6.00;;;;;;;;;;3569223;40;20796;-73
2021/07/30 01:19:21;;;;;;;6.73;5.40;;;;;;;;;;3561740;40;20495;-73
2021/07/30 01:21:48;;;;;;;9.73;5.77;;;;;;;;;;3560790;40;20417;-73
2021/07/30 01:24:14;;;;;;;7.10;5.30;;;;;;;;;;3561303;40;20602;-73
2021/07/30 01:26:40;;;;;;;6.87;5.20;;;;;;;;;;3568497;40;20401;-72
2021/07/30 01:29:06;;;;;;;8.93;5.30;;;;;;;;;;3560542;40;20425;-73
2021/07/30 01:31:32;;;;;;;6.90;5.47;;;;;;;;;;3561258;40;20935;-73
2021/07/30 01:33:58;;;;;;;11.73;5.47;;;;;;;;;;3569995;40;20997;-73
2021/07/30 01:36:24;;;;;;;7.77;5.63;;;;;;;;;;3569614;40;20410;-73
2021/07/30 01:38:50;;;;;;;6.27;5.00;;;;;;;;;;3568618;40;20872;-73
2021/07/30 01:41:16;;;;;;;8.93;5.67;;;;;;;;;;3560496;40;20441;-73
2021/07/30 01:43:43;;;;;;;10.40;5.90;;;;;;;;;;3561304;40;21125;-73
2021/07/30 01:46:10;;;;;;;8.13;5.67;;;;;;;;;;3570743;40;20425;-73
2021/07/30 01:48:36;;;;;;;8.30;6.13;;;;;;;;;;3560130;40;21387;-73
2021/07/30 01:51:02;;;;;;;10.23;6.20;;;;;;;;;;3571330;40;20415;-73
2021/07/30 01:53:28;;;;;;;6.50;5.13;;;;;;;;;;3568545;40;20408;-73
2021/07/30 01:55:55;;;;;;;8.43;5.47;;;;;;;;;;3557540;40;20755;-73
2021/07/30 01:58:21;;;;;;;6.43;5.80;;;;;;;;;;3559061;40;20802;-73
2021/07/30 02:00:47;;;;;;;8.67;5.63;;;;;;;;;;3561288;40;20474;-73
2021/07/30 02:03:13;;;;;;;5.43;4.67;;;;;;;;;;3570280;40;20816;-73
2021/07/30 02:05:40;;;;;;;7.27;4.70;;;;;;;;;;3558515;40;20438;-73
2021/07/30 02:08:06;;;;;;;8.80;5.40;;;;;;;;;;3561057;40;20410;-73
2021/07/30 02:10:32;;;;;;;9.83;5.43;;;;;;;;;;3559896;40;20415;-73
2021/07/30 02:15:44;;;;;;;11.77;5.33;;;;;;;;;;3560125;40;20501;-73
2021/07/30 02:18:10;;;;;;;5.40;4.90;;;;;;;;;;3558913;40;20508;-73
2021/07/30 02:20:37;;;;;;;8.73;5.33;;;;;;;;;;3550322;40;20577;-73
2021/07/30 02:23:03;;;;;;;9.33;5.40;;;;;;;;;;3560017;40;20410;-73
2021/07/30 02:25:29;;;;;;;5.57;5.07;;;;;;;;;;3560312;40;20965;-73
2021/07/30 02:27:55;;;;;;;5.93;4.63;;;;;;;;;;3557417;40;20581;-73
2021/07/30 02:30:21;;;;;;;6.80;5.53;;;;;;;;;;3552513;40;20926;-73
2021/07/30 02:32:47;;;;;;;7.03;5.33;;;;;;;;;;3559117;40;20405;-74
2021/07/30 02:35:13;;;;;;;10.20;4.73;;;;;;;;;;3566998;40;20414;-74
2021/07/30 02:37:40;;;;;;;6.73;4.97;;;;;;;;;;3550229;40;20422;-73
2021/07/30 02:40:06;;;;;;;10.27;5.70;;;;;;;;;;3560114;40;20421;-73
2021/07/30 02:42:32;;;;;;;9.33;5.83;;;;;;;;;;3541692;40;20914;-74
2021/07/30 02:44:58;;;;;;;8.97;5.20;;;;;;;;;;3559201;40;20499;-74
2021/07/30 02:47:24;;;;;;;5.77;4.77;;;;;;;;;;3550119;40;20508;-74
2021/07/30 02:49:51;;;;;;;11.90;4.93;;;;;;;;;;3550744;40;20811;-74
2021/07/30 02:52:17;;;;;;;5.30;4.80;;;;;;;;;;3558399;40;20421;-73
2021/07/30 02:54:43;;;;;;;8.27;5.47;;;;;;;;;;3560216;40;21130;-74
2021/07/30 02:57:09;;;;;;;8.23;6.17;;;;;;;;;;3560589;40;20411;-74
2021/07/30 02:59:35;;;;;;;8.10;4.70;;;;;;;;;;3552564;40;20425;-74
2021/07/30 03:02:01;;;;;;;13.23;7.17;;;;;;;;;;3559294;40;20431;-73
2021/07/30 03:04:27;;;;;;;9.03;5.50;;;;;;;;;;3560185;40;20441;-73
2021/07/30 03:06:53;;;;;;;6.83;5.40;;;;;;;;;;3571286;40;20428;-73
2021/07/30 03:09:20;;;;;;;7.00;4.80;;;;;;;;;;3561742;40;20436;-73
2021/07/30 03:11:46;;;;;;;9.40;6.00;;;;;;;;;;3571726;40;20726;-73
2021/07/30 03:14:12;;;;;;;8.40;4.70;;;;;;;;;;3569986;40;20409;-73
2021/07/30 03:16:38;;;;;;;7.83;4.93;;;;;;;;;;3561351;40;20826;-73
2021/07/30 03:19:04;;;;;;;7.93;5.77;;;;;;;;;;3567863;40;20842;-73
2021/07/30 03:21:30;;;;;;;12.47;6.37;;;;;;;;;;3569374;40;20402;-73
2021/07/30 03:23:56;;;;;;;13.70;6.57;;;;;;;;;;3571477;40;20413;-73
2021/07/30 03:26:22;;;;;;;8.30;6.37;;;;;;;;;;3570683;40;20417;-73
2021/07/30 03:28:49;;;;;;;9.13;5.87;;;;;;;;;;3553000;40;20398;-73
2021/07/30 03:31:15;;;;;;;9.60;5.93;;;;;;;;;;3568346;40;20405;-73
2021/07/30 03:33:41;;;;;;;8.80;6.07;;;;;;;;;;3567972;40;20408;-73
2021/07/30 03:36:08;;;;;;;9.57;6.10;;;;;;;;;;3553660;40;21300;-73
2021/07/30 03:38:34;;;;;;;8.03;6.10;;;;;;;;;;3570313;40;20472;-73
2021/07/30 03:41:04;;;;;;;8.80;6.90;;;;;;;;;;3571604;40;20445;-73
2021/07/30 03:43:30;;;;;;;9.47;6.20;;;;;;;;;;3568669;40;20855;-73
2021/07/30 03:45:56;;;;;;;8.10;5.90;;;;;;;;;;3561357;40;20401;-73
2021/07/30 03:48:22;;;;;;;5.77;5.17;;;;;;;;;;3568780;40;20812;-73
2021/07/30 03:50:48;;;;;;;8.87;5.73;;;;;;;;;;3561575;40;20401;-73
2021/07/30 03:53:14;;;;;;;9.80;5.40;;;;;;;;;;3560609;40;20736;-73
2021/07/30 03:55:41;;;;;;;8.13;6.10;;;;;;;;;;3562135;40;20545;-73
2021/07/30 03:58:07;;;;;;;8.40;5.47;;;;;;;;;;3551802;40;20507;-73
2021/07/30 04:00:33;;;;;;;7.57;6.10;;;;;;;;;;3570611;40;20428;-73
2021/07/30 04:02:59;;;;;;;14.17;5.70;;;;;;;;;;3549826;40;20845;-73
2021/07/30 04:05:25;;;;;;;14.40;5.50;;;;;;;;;;3560202;40;20418;-73
2021/07/30 04:07:51;;;;;;;10.07;6.83;;;;;;;;;;3569506;40;20514;-72
2021/07/30 04:10:18;;;;;;;13.13;8.03;;;;;;;;;;3569055;40;20413;-73
2021/07/30 04:12:44;;;;;;;7.90;5.50;;;;;;;;;;3562194;40;20413;-72
2021/07/30 04:15:10;;;;;;;12.10;6.40;;;;;;;;;;3569228;40;20920;-73
2021/07/30 04:17:36;;;;;;;10.43;6.07;;;;;;;;;;3568613;40;20477;-72
2021/07/30 04:20:02;;;;;;;13.67;6.03;;;;;;;;;;3566853;40;20390;-72
2021/07/30 04:22:28;;;;;;;9.10;6.10;;;;;;;;;;3568006;40;20426;-74
2021/07/30 04:24:55;;;;;;;9.60;5.63;;;;;;;;;;3569811;40;20470;-73
2021/07/30 04:27:21;;;;;;;7.40;5.83;;;;;;;;;;3560334;40;20795;-73
2021/07/30 04:29:47;;;;;;;10.10;5.17;;;;;;;;;;3553623;40;20495;-73
2021/07/30 04:32:13;;;;;;;9.27;6.27;;;;;;;;;;3569952;40;20413;-73
2021/07/30 04:34:40;;;;;;;8.00;5.10;;;;;;;;;;3560213;40;20425;-73
2021/07/30 04:37:06;;;;;;;6.50;5.80;;;;;;;;;;3569840;40;21165;-73
2021/07/30 04:39:33;;;;;;;9.57;6.97;;;;;;;;;;3571339;40;21158;-73
2021/07/30 04:41:59;;;;;;;9.43;5.93;;;;;;;;;;3570391;40;20412;-73
2021/07/30 04:44:25;;;;;;;6.40;4.97;;;;;;;;;;3561149;40;20407;-73
2021/07/30 04:46:51;;;;;;;10.63;6.20;;;;;;;;;;3571211;40;20818;-73
2021/07/30 04:49:17;;;;;;;11.97;6.07;;;;;;;;;;3569546;40;20440;-73
2021/07/30 04:51:43;;;;;;;7.63;6.63;;;;;;;;;;3568275;40;20524;-73
2021/07/30 04:54:10;;;;;;;8.30;5.70;;;;;;;;;;3568086;40;20406;-73
2021/07/30 04:56:36;;;;;;;9.33;5.53;;;;;;;;;;3560911;40;20914;-73
2021/07/30 04:59:03;;;;;;;8.03;6.03;;;;;;;;;;3569820;40;20406;-73
2021/07/30 05:01:30;;;;;;;13.53;6.10;;;;;;;;;;3558574;40;20413;-73
2021/07/30 05:03:57;;;;;;;12.10;6.13;;;;;;;;;;3569270;40;20469;-73
2021/07/30 05:06:23;;;;;;;9.77;6.30;;;;;;;;;;3569632;40;20478;-73
2021/07/30 05:08:49;;;;;;;9.77;6.67;;;;;;;;;;3569205;40;20438;-73
2021/07/30 05:11:16;;;;;;;10.33;5.93;;;;;;;;;;3570945;40;20429;-73
2021/07/30 05:13:44;;;;;;;14.17;6.87;;;;;;;;;;3568468;40;20456;-71
2021/07/30 05:16:11;;;;;;;13.80;7.07;;;;;;;;;;3559366;40;20552;-72
2021/07/30 05:18:37;;;;;;;10.50;5.70;;;;;;;;;;3569866;40;20504;-74
2021/07/30 05:21:04;;;;;;;9.70;5.20;;;;;;;;;;3559223;40;20487;-72
2021/07/30 05:23:31;;;;;;;6.20;5.60;;;;;;;;;;3559299;40;20417;-72
2021/07/30 05:25:57;;;;;;;7.03;5.50;;;;;;;;;;3568139;40;20481;-72
2021/07/30 05:28:23;;;;;;;6.23;4.80;;;;;;;;;;3557844;40;20433;-72
2021/07/30 05:30:50;;;;;;;9.83;4.77;;;;;;;;;;3552084;40;20430;-72
2021/07/30 05:33:16;;;;;;;5.93;5.00;;;;;;;;;;3565861;40;20408;-72
2021/07/30 05:35:42;;;;;;;9.47;6.60;;;;;;;;;;3568833;40;20425;-72
2021/07/30 05:38:08;;;;;;;7.00;5.30;;;;;;;;;;3565732;40;20821;-72
2021/07/30 05:40:34;;;;;;;7.17;4.50;;;;;;;;;;3562853;40;20757;-75
2021/07/30 05:43:00;;;;;;;8.70;5.20;;;;;;;;;;3562580;40;20437;-74
2021/07/30 05:45:26;;;;;;;9.77;5.30;;;;;;;;;;3566830;40;20397;-73
2021/07/30 05:47:52;;;;;;;5.97;4.70;;;;;;;;;;3565349;40;20568;-73
2021/07/30 05:50:18;;;;;;;5.03;4.60;;;;;;;;;;3566682;40;20413;-74
2021/07/30 05:52:45;;;;;;;8.03;5.00;;;;;;;;;;3562490;40;20960;-74
2021/07/30 05:55:11;;;;;;;5.47;4.97;;;;;;;;;;3567589;40;20460;-73
2021/07/30 05:57:37;;;;;;;6.97;5.67;;;;;;;;;;3569252;40;20468;-74
2021/07/30 06:00:04;;;;;;;11.57;5.03;;;;;;;;;;3571344;39;20722;-73
2021/07/30 06:02:30;;;;;;;4.33;3.80;;;;;;;;;;3558399;40;20469;-73
2021/07/30 06:04:56;;;;;;;9.43;4.27;;;;;;;;;;3563028;40;20429;-73
2021/07/30 06:07:22;;;;;;;4.43;4.03;;;;;;;;;;3554976;40;20940;-73
2021/07/30 06:09:48;;;;;;;5.10;4.60;;;;;;;;;;3557619;40;20469;-73
2021/07/30 06:12:14;;;;;;;5.50;3.83;;;;;;;;;;3565215;40;20398;-73
2021/07/30 06:14:41;;;;;;;7.00;4.63;;;;;;;;;;3569157;40;20838;-73
2021/07/30 06:17:07;;;;;;;6.87;3.83;;;;;;;;;;3566319;40;20433;-73
2021/07/30 06:19:33;;;;;;;8.70;4.53;;;;;;;;;;3556606;40;20421;-73
2021/07/30 06:21:59;;;;;;;10.07;4.37;;;;;;;;;;3554152;40;20799;-73
2021/07/30 06:24:25;;;;;;;4.57;4.13;;;;;;;;;;3562598;40;20734;-73
2021/07/30 06:26:51;;;;;;;3.77;3.47;;;;;;;;;;3562280;40;21195;-73
2021/07/30 06:29:17;;;;;;;7.73;4.33;;;;;;;;;;3546910;40;20409;-73
2021/07/30 06:31:44;;;;;;;6.30;3.80;;;;;;;;;;3565112;40;20610;-73
2021/07/30 06:34:10;;;;;;;4.20;3.30;;;;;;;;;;3567607;40;20453;-73
2021/07/30 06:36:36;;;;;;;5.80;4.00;;;;;;;;;;3545623;40;20398;-74
2021/07/30 06:39:03;;;;;;;3.87;3.57;;;;;;;;;;3556406;40;20437;-74
2021/07/30 06:41:29;;;;;;;6.40;3.70;;;;;;;;;;3565226;40;20414;-73
2021/07/30 06:43:56;;;;;;;5.40;3.03;;;;;;;;;;3564863;40;20401;-73
2021/07/30 06:46:22;;;;;;;7.87;3.97;;;;;;;;;;3568019;39;20417;-72
2021/07/30 06:48:48;;;;;;;6.40;3.80;;;;;;;;;;3568194;40;20406;-73
2021/07/30 06:51:14;;;;;;;4.97;4.07;;;;;;;;;;3556181;40;20803;-73
2021/07/30 06:53:40;;;;;;;7.17;4.70;;;;;;;;;;3565881;40;20484;-73
2021/07/30 06:56:13;;;;;;;6.50;4.10;;;;;;;;;;3565590;40;20478;-73
2021/07/30 06:58:40;;;;;;;5.40;4.53;;;;;;;;;;3564937;40;20428;-73
2021/07/30 07:01:06;;;;;;;3.93;3.70;;;;;;;;;;3556725;40;20427;-73
2021/07/30 07:03:32;;;;;;;6.80;4.10;;;;;;;;;;3548935;40;20833;-74
2021/07/30 07:05:58;;;;;;;5.30;3.33;;;;;;;;;;3557159;40;20426;-73
2021/07/30 07:08:24;;;;;;;4.90;3.20;;;;;;;;;;3566801;40;20815;-74
2021/07/30 07:10:50;;;;;;;2.97;2.77;;;;;;;;;;3565456;40;20511;-73
2021/07/30 07:13:17;;;;;;;5.87;3.30;;;;;;;;;;3565261;40;20508;-72
2021/07/30 07:15:43;;;;;;;5.57;3.83;;;;;;;;;;3565894;40;20471;-73
2021/07/30 07:18:10;;;;;;;6.83;3.90;;;;;;;;;;3553786;40;20540;-73
2021/07/30 07:20:36;;;;;;;4.97;3.90;;;;;;;;;;3557583;40;20406;-73
2021/07/30 07:23:02;;;;;;;3.97;3.40;;;;;;;;;;3548934;40;20457;-73
2021/07/30 07:25:28;;;;;;;5.33;3.80;;;;;;;;;;3565698;40;20401;-73
2021/07/30 07:27:55;;;;;;;4.63;3.37;;;;;;;;;;3565296;40;20405;-73
2021/07/30 07:30:21;;;;;;;7.57;4.23;;;;;;;;;;3555338;40;20417;-73
2021/07/30 07:32:48;;;;;;;4.77;3.23;;;;;;;;;;3554363;40;20452;-73
2021/07/30 07:35:14;;;;;;;11.43;4.20;;;;;;;;;;3566815;40;20394;-73
2021/07/30 07:37:41;;;;;;;4.77;3.63;;;;;;;;;;3555396;40;20414;-73
2021/07/30 07:40:07;;;;;;;4.93;3.87;;;;;;;;;;3565657;40;20943;-73
2021/07/30 07:42:34;;;;;;;4.60;3.10;;;;;;;;;;3565632;40;20428;-73
2021/07/30 07:45:01;;;;;;;8.27;3.40;;;;;;;;;;3567257;40;20401;-73
2021/07/30 07:47:31;;;;;;;5.50;3.20;;;;;;;;;;3556599;40;20406;-74
2021/07/30 07:49:57;;;;;;;5.67;3.67;;;;;;;;;;3555922;40;20435;-73
2021/07/30 07:52:23;;;;;;;4.90;4.10;;;;;;;;;;3566239;40;20752;-73
2021/07/30 07:54:49;;;;;;;4.33;3.93;;;;;;;;;;3566669;40;20410;-73
2021/07/30 07:57:15;;;;;;;8.30;4.60;;;;;;;;;;3563765;40;21315;-72
2021/07/30 07:59:42;;;;;;;7.23;5.40;;;;;;;;;;3566091;40;20402;-72
2021/07/30 08:02:08;;;;;;;5.23;4.90;;;;;;;;;;3563600;40;20546;-72
2021/07/30 08:04:35;;;;;;;7.20;5.43;;;;;;;;;;3561801;40;20429;-73
2021/07/30 08:07:02;;;;;;;4.60;4.10;;;;;;;;;;3562858;40;20425;-73
2021/07/30 08:09:28;;;;;;;4.37;4.00;;;;;;;;;;3560017;40;20453;-73
2021/07/30 08:11:55;;;;;;;11.70;4.43;;;;;;;;;;3560131;40;20457;-73
2021/07/30 08:14:21;;;;;;;4.73;4.33;;;;;;;;;;3560332;40;20390;-73
2021/07/30 08:16:47;;;;;;;5.03;4.30;;;;;;;;;;3559043;40;20420;-73
2021/07/30 08:19:14;;;;;;;4.80;4.40;;;;;;;;;;3553402;40;20841;-73
2021/07/30 08:21:40;;;;;;;5.73;5.33;;;;;;;;;;3558505;40;21157;-73
2021/07/30 08:24:06;;;;;;;6.57;5.70;;;;;;;;;;3561222;40;21104;-73
2021/07/30 08:26:32;;;;;;;4.13;3.83;;;;;;;;;;3560560;40;20416;-73
2021/07/30 08:28:58;;;;;;;5.23;4.67;;;;;;;;;;3551028;40;20527;-73
2021/07/30 08:31:25;;;;;;;4.73;4.43;;;;;;;;;;3563093;40;20711;-73
2021/07/30 08:33:51;;;;;;;5.97;5.67;;;;;;;;;;3552020;40;20405;-73
2021/07/30 08:36:18;;;;;;;4.73;4.43;;;;;;;;;;3559887;40;20596;-73
2021/07/30 08:38:44;;;;;;;5.23;4.70;;;;;;;;;;3561268;40;20405;-73
2021/07/30 08:41:10;;;;;;;7.93;4.90;;;;;;;;;;3560309;40;20523;-73
2021/07/30 08:43:36;;;;;;;6.60;6.00;;;;;;;;;;3558897;40;20468;-73
2021/07/30 08:46:02;;;;;;;6.27;5.63;;;;;;;;;;3551142;40;20685;-73
2021/07/30 08:48:29;;;;;;;5.93;5.60;;;;;;;;;;3550005;40;20865;-73
2021/07/30 08:50:55;;;;;;;5.10;4.60;;;;;;;;;;3561008;40;20425;-73
2021/07/30 08:53:23;;;;;;;6.27;5.70;;;;;;;;;;3551733;40;20398;-73
2021/07/30 08:55:49;;;;;;;6.53;5.93;;;;;;;;;;3560700;40;20424;-73
2021/07/30 08:58:15;;;;;;;7.30;5.90;;;;;;;;;;3560835;40;20406;-73
2021/07/30 09:00:41;;;;;;;6.30;5.83;;;;;;;;;;3560538;40;22963;-73
2021/07/30 09:03:07;;;;;;;6.20;5.60;;;;;;;;;;3561993;40;22237;-73
2021/07/30 09:05:34;;;;;;;15.00;4.60;;;;;;;;;;3551422;40;20432;-73
2021/07/30 09:08:01;;;;;;;5.50;5.10;;;;;;;;;;3560883;40;20751;-73
2021/07/30 09:10:32;;;;;;;5.37;4.97;;;;;;;;;;3559211;40;20932;-73
2021/07/30 09:13:10;;;;;;;6.03;5.50;;;;;;;;;;3559356;40;20406;-73
2021/07/30 09:15:37;;;;;;;6.87;6.33;;;;;;;;;;3560017;40;20849;-73
2021/07/30 09:18:04;;;;;;;6.10;5.67;;;;;;;;;;3550893;40;20723;-73
2021/07/30 09:20:30;;;;;;;6.23;5.83;;;;;;;;;;3559671;40;20406;-73
2021/07/30 09:22:56;;;;;;;6.07;5.77;;;;;;;;;;3558547;40;20699;-73
2021/07/30 09:25:33;;;;;;;6.17;5.77;;;;;;;;;;3557516;40;21222;-73
2021/07/30 09:28:02;;;;;;;6.63;6.13;;;;;;;;;;3560828;40;20448;-73
2021/07/30 09:30:28;;;;;;;7.50;5.37;;;;;;;;;;3548914;40;20409;-73
2021/07/30 09:32:55;;;;;;;7.07;6.50;;;;;;;;;;3557552;40;20444;-73
2021/07/30 09:35:21;;;;;;;5.87;5.43;;;;;;;;;;3559939;40;20429;-73
2021/07/30 09:37:47;;;;;;;5.80;5.23;;;;;;;;;;3549605;40;20748;-73
2021/07/30 09:40:20;;;;;;;6.87;6.43;;;;;;;;;;3558610;40;20472;-73
2021/07/30 09:42:46;;;;;;;7.37;6.87;;;;;;;;;;3560334;40;20417;-73
2021/07/30 09:45:15;;;;;;;5.37;4.97;;;;;;;;;;3548482;40;22639;-73
2021/07/30 09:47:48;;;;;;;6.50;5.90;;;;;;;;;;3549305;40;20418;-73
2021/07/30 09:50:14;;;;;;;6.37;5.80;;;;;;;;;;3550616;40;20595;-73
2021/07/30 09:52:41;;;;;;;6.03;5.53;;;;;;;;;;3550177;40;20975;-73
2021/07/30 09:55:07;;;;;;;7.33;6.83;;;;;;;;;;3542705;40;20826;-73
2021/07/30 09:57:43;;;;;;;6.37;5.27;;;;;;;;;;3558218;40;20448;-73
2021/07/30 10:00:13;;;;;;;8.17;7.50;;;;;;;;;;3551748;40;20481;-72
2021/07/30 10:02:41;;;;;;;5.60;5.20;;;;;;;;;;3549885;40;20409;-73
2021/07/30 10:05:10;;;;;;;9.87;7.60;;;;;;;;;;3561213;40;20414;-73
2021/07/30 10:07:37;;;;;;;11.07;6.20;;;;;;;;;;3555739;40;20417;-73
2021/07/30 10:10:46;;;;;;;6.67;6.17;;;;;;;;;;3559980;40;21098;-73
2021/07/30 10:13:06;;;;;;;6.70;6.20;;;;;;;;;;3549380;40;21109;-74
2021/07/30 10:15:33;;;;;;;7.83;7.23;;;;;;;;;;3558452;40;20459;-74
2021/07/30 10:18:00;;;;;;;8.30;6.70;;;;;;;;;;3551365;40;20414;-73
2021/07/30 10:20:27;;;;;;;8.87;7.53;;;;;;;;;;3557458;40;23600;-74
2021/07/30 10:23:12;;;;;;;9.37;5.93;;;;;;;;;;3549262;40;20512;-73
2021/07/30 10:25:39;;;;;;;7.80;7.20;;;;;;;;;;3559588;40;20416;-74
2021/07/30 10:28:08;;;;;;;6.57;6.07;;;;;;;;;;3546836;40;20464;-74
2021/07/30 10:30:53;;;;;;;6.97;6.40;;;;;;;;;;3551287;40;21675;-73
2021/07/30 10:33:32;;;;;;;9.67;7.57;;;;;;;;;;3557332;40;20438;-74
2021/07/30 10:35:59;;;;;;;8.33;7.63;;;;;;;;;;3558713;40;20413;-74
2021/07/30 10:38:25;;;;;;;5.13;4.83;;;;;;;;;;3557499;40;20456;-74
2021/07/30 10:41:07;;;;;;;10.63;5.63;;;;;;;;;;3549318;40;20480;-72
2021/07/30 10:43:53;;;;;;;7.30;6.77;;;;;;;;;;3560723;40;20396;-71
2021/07/30 10:46:20;;;;;;;11.70;7.07;;;;;;;;;;3515973;40;20397;-73
2021/07/30 10:48:47;;;;;;;6.43;4.53;;;;;;;;;;3513510;40;20869;-73
2021/07/30 10:51:19;;;;;;;5.07;4.60;;;;;;;;;;3507913;40;20429;-73
2021/07/30 10:53:46;;;;;;;6.00;4.80;;;;;;;;;;3506724;40;20996;-73
2021/07/30 10:56:17;;;;;;;7.40;5.20;;;;;;;;;;3509926;40;20554;-73
2021/07/30 10:58:44;;;;;;;7.93;7.53;;;;;;;;;;3506338;40;22531;-73
2021/07/30 11:01:11;;;;;;;7.63;7.03;;;;;;;;;;3501479;40;20417;-74
2021/07/30 11:03:52;;;;;;;7.73;7.20;;;;;;;;;;3501762;40;21103;-73
2021/07/30 11:06:24;;;;;;;6.40;5.90;;;;;;;;;;3506103;40;20516;-73
2021/07/30 11:09:03;;;;;;;7.90;6.67;;;;;;;;;;3506217;40;20425;-74
2021/07/30 11:11:38;;;;;;;6.60;6.20;;;;;;;;;;3508541;40;20693;-74
2021/07/30 11:14:08;;;;;;;5.77;5.10;;;;;;;;;;3507692;40;20409;-74
2021/07/30 11:16:34;;;;;;;5.20;4.80;;;;;;;;;;3502060;40;20429;-74
2021/07/30 11:19:06;;;;;;;7.70;5.53;;;;;;;;;;3511339;40;20592;-73
2021/07/30 11:21:33;;;;;;;6.80;6.33;;;;;;;;;;3508587;40;20428;-74
2021/07/30 11:24:00;;;;;;;8.57;6.40;;;;;;;;;;3544836;40;20421;-73
2021/07/30 11:26:28;;;;;;;6.20;5.60;;;;;;;;;;3551525;40;21166;-73
2021/07/30 11:28:59;;;;;;;6.30;5.80;;;;;;;;;;3558929;40;20445;-72
2021/07/30 11:31:25;;;;;;;7.27;6.63;;;;;;;;;;3559655;40;20424;-72
2021/07/30 11:33:52;;;;;;;6.63;6.23;;;;;;;;;;3559539;40;20405;-73
2021/07/30 11:36:19;;;;;;;7.73;7.13;;;;;;;;;;3558916;40;20405;-73
2021/07/30 11:38:53;;;;;;;7.03;6.33;;;;;;;;;;3563059;39;20433;-73
2021/07/30 11:41:20;;;;;;;6.10;5.70;;;;;;;;;;3547965;40;20398;-73
2021/07/30 11:44:09;;;;;;;6.97;6.50;;;;;;;;;;3561370;40;20454;-73
2021/07/30 11:46:35;;;;;;;7.83;7.13;;;;;;;;;;3555051;40;20442;-72
2021/07/30 11:49:02;;;;;;;7.20;6.60;;;;;;;;;;3558222;40;21030;-73
2021/07/30 11:51:29;;;;;;;8.60;8.10;;;;;;;;;;3559862;40;20421;-73
2021/07/30 11:53:56;;;;;;;8.20;7.70;;;;;;;;;;3551808;40;21193;-73
2021/07/30 11:56:23;;;;;;;8.27;7.50;;;;;;;;;;3548975;40;20458;-73
2021/07/30 11:58:58;;;;;;;6.33;5.83;;;;;;;;;;3551759;40;20429;-73
2021/07/30 12:01:25;;;;;;;7.10;6.50;;;;;;;;;;3543028;40;20822;-73
2021/07/30 12:04:10;;;;;;;7.93;7.33;;;;;;;;;;3550441;40;20500;-73
2021/07/30 12:06:40;;;;;;;6.87;6.37;;;;;;;;;;3557332;40;20417;-73
2021/07/30 12:09:07;;;;;;;6.20;5.80;;;;;;;;;;3555907;40;20409;-73
2021/07/30 12:11:33;;;;;;;6.67;6.17;;;;;;;;;;3566028;40;20469;-73
2021/07/30 12:14:00;;;;;;;7.10;6.50;;;;;;;;;;3567916;40;20683;-74
2021/07/30 12:16:46;;;;;;;8.40;7.80;;;;;;;;;;3558151;40;20405;-73
2021/07/30 12:19:12;;;;;;;8.63;8.00;;;;;;;;;;3566210;40;20412;-73
2021/07/30 12:21:57;;;;;;;8.50;6.63;;;;;;;;;;3567625;40;20405;-73
2021/07/30 12:24:23;;;;;;;6.50;6.10;;;;;;;;;;3568770;40;20798;-73
2021/07/30 12:26:49;;;;;;;7.30;6.57;;;;;;;;;;3560158;40;20409;-73
2021/07/30 12:29:34;;;;;;;9.47;8.70;;;;;;;;;;3572143;40;20421;-73
2021/07/30 12:32:13;;;;;;;7.67;7.03;;;;;;;;;;3572359;40;20511;-73
2021/07/30 12:34:39;;;;;;;7.53;6.93;;;;;;;;;;3562387;40;20408;-71
2021/07/30 12:37:11;;;;;;;9.53;8.67;;;;;;;;;;3569661;40;20426;-73
2021/07/30 12:39:47;;;;;;;6.30;5.90;;;;;;;;;;3569521;40;20513;-72
2021/07/30 12:42:24;;;;;;;6.10;5.70;;;;;;;;;;3563417;40;20673;-73
2021/07/30 12:45:00;;;;;;;6.67;6.17;;;;;;;;;;3562007;40;20397;-73
2021/07/30 12:47:26;;;;;;;6.93;6.33;;;;;;;;;;3561990;40;20445;-73
2021/07/30 12:49:52;;;;;;;6.90;6.53;;;;;;;;;;3570879;40;20496;-72
2021/07/30 12:52:19;;;;;;;6.77;6.23;;;;;;;;;;3553223;40;20417;-73
2021/07/30 12:54:45;;;;;;;10.30;9.50;;;;;;;;;;3570405;40;20772;-73
2021/07/30 12:57:12;;;;;;;8.93;8.00;;;;;;;;;;3569581;40;20878;-73
2021/07/30 12:59:50;;;;;;;6.43;5.70;;;;;;;;;;3571580;40;20493;-73
2021/07/30 13:02:17;;;;;;;8.30;7.87;;;;;;;;;;3568536;40;20433;-72
2021/07/30 13:04:43;;;;;;;6.33;5.83;;;;;;;;;;3569684;40;20440;-72
2021/07/30 13:07:10;;;;;;;5.27;4.97;;;;;;;;;;3568955;40;20453;-73
2021/07/30 13:09:36;;;;;;;5.77;5.20;;;;;;;;;;3570897;40;20412;-73
2021/07/30 13:12:03;;;;;;;8.20;5.80;;;;;;;;;;3569165;40;20904;-73
2021/07/30 13:14:29;;;;;;;6.60;6.20;;;;;;;;;;3571203;40;20397;-73
2021/07/30 13:16:55;;;;;;;9.67;5.57;;;;;;;;;;3568231;40;20398;-73
2021/07/30 13:19:21;;;;;;;5.50;5.00;;;;;;;;;;3568830;40;20747;-73
2021/07/30 13:21:47;;;;;;;5.00;4.70;;;;;;;;;;3559340;40;20417;-73
2021/07/30 13:24:13;;;;;;;5.47;5.07;;;;;;;;;;3570926;40;20390;-73
2021/07/30 13:26:40;;;;;;;5.83;5.43;;;;;;;;;;3569340;40;20413;-72
2021/07/30 13:29:06;;;;;;;6.27;5.97;;;;;;;;;;3552250;40;20433;-74
2021/07/30 13:31:33;;;;;;;6.80;6.30;;;;;;;;;;3571241;40;20882;-73
2021/07/30 13:33:59;;;;;;;8.00;7.00;;;;;;;;;;3568931;40;20406;-73
2021/07/30 13:36:26;;;;;;;6.53;6.13;;;;;;;;;;3561545;40;20401;-73
2021/07/30 13:38:52;;;;;;;6.10;5.70;;;;;;;;;;3568905;40;21096;-73
2021/07/30 13:41:18;;;;;;;6.47;6.00;;;;;;;;;;3568893;40;20429;-73
2021/07/30 13:43:44;;;;;;;5.93;5.43;;;;;;;;;;3559980;40;20819;-73
2021/07/30 13:46:10;;;;;;;7.20;5.77;;;;;;;;;;3565466;40;20511;-73
2021/07/30 13:48:37;;;;;;;6.27;5.77;;;;;;;;;;3569316;40;20412;-73
2021/07/30 13:51:03;;;;;;;5.40;4.77;;;;;;;;;;3569108;40;20572;-73
2021/07/30 13:53:29;;;;;;;5.60;5.20;;;;;;;;;;3559930;40;20404;-73
2021/07/30 13:55:56;;;;;;;5.73;5.23;;;;;;;;;;3565688;40;20425;-73
2021/07/30 13:58:22;;;;;;;5.27;4.77;;;;;;;;;;3558466;40;20871;-73
2021/07/30 14:00:49;;;;;;;5.40;5.10;;;;;;;;;;3567282;40;20461;-73
2021/07/30 14:03:15;;;;;;;5.60;4.60;;;;;;;;;;3558604;40;21457;-73
2021/07/30 14:05:45;;;;;;;4.53;4.23;;;;;;;;;;3569365;40;20451;-73
2021/07/30 14:08:11;;;;;;;5.00;4.70;;;;;;;;;;3566541;40;20416;-73
2021/07/30 14:10:37;;;;;;;5.60;5.10;;;;;;;;;;3558480;40;20526;-73
2021/07/30 14:13:04;;;;;;;5.50;5.00;;;;;;;;;;3567716;40;20392;-73
2021/07/30 14:15:31;;;;;;;4.70;4.47;;;;;;;;;;3568080;40;20436;-73
2021/07/30 14:17:57;;;;;;;5.23;4.80;;;;;;;;;;3568968;40;20414;-74
2021/07/30 14:20:23;;;;;;;7.87;7.00;;;;;;;;;;3568169;40;20442;-73
2021/07/30 14:22:49;;;;;;;8.83;4.90;;;;;;;;;;3565543;40;20401;-73
2021/07/30 14:25:16;;;;;;;5.47;4.97;;;;;;;;;;3554419;40;20473;-73
2021/07/30 14:27:42;;;;;;;6.97;4.43;;;;;;;;;;3562388;40;20528;-73
2021/07/30 14:30:08;;;;;;;4.27;3.97;;;;;;;;;;3566078;40;20866;-73
2021/07/30 14:32:34;;;;;;;5.73;4.13;;;;;;;;;;3558113;40;20429;-73
2021/07/30 14:35:00;;;;;;;7.33;4.30;;;;;;;;;;3568106;40;20739;-73
2021/07/30 14:37:26;;;;;;;6.80;4.47;;;;;;;;;;3559934;40;20409;-73
2021/07/30 14:39:52;;;;;;;5.53;5.03;;;;;;;;;;3547739;40;20413;-73
2021/07/30 14:42:18;;;;;;;5.17;4.27;;;;;;;;;;3566343;40;20429;-73
2021/07/30 14:44:44;;;;;;;5.00;4.30;;;;;;;;;;3548055;40;21328;-73